Time;durP1;ratioP1;P1;durP2;ratioP2;P2;SDS_P1;SDS_P2;PMS_P1;PMS_P2;Temp;Humidity;BMP_temperature;BMP_pressure;BME280_temperature;BME280_humidity;BME280_pressure;Samples;Min_cycle;Max_cycle;Signal;HPM_P1;HPM_P2
2022/04/23 00:01:55;;;;;;;21.90;18.60;;;9.10;99.90;;;;;;5107958;28;20039;-78
2022/04/23 00:04:21;;;;;;;23.63;19.40;;;9.10;99.90;;;;;;5073557;28;20029;-79
2022/04/23 00:06:48;;;;;;;24.53;20.73;;;9.10;99.90;;;;;;5092494;28;20056;-78
2022/04/23 00:09:13;;;;;;;25.20;20.70;;;9.00;99.90;;;;;;5092174;28;20028;-78
2022/04/23 00:11:39;;;;;;;23.87;20.80;;;8.90;99.90;;;;;;5092052;28;20024;-79
2022/04/23 00:14:05;;;;;;;24.40;20.93;;;8.80;99.90;;;;;;5094451;28;20030;-79
2022/04/23 00:16:30;;;;;;;25.83;22.13;;;8.90;99.90;;;;;;5075904;28;20353;-78
2022/04/23 00:18:58;;;;;;;24.43;19.77;;;9.00;99.90;;;;;;5091503;28;20024;-78
2022/04/23 00:21:23;;;;;;;26.33;21.07;;;9.00;99.90;;;;;;5090769;28;20020;-78
2022/04/23 00:23:49;;;;;;;23.20;19.30;;;8.90;99.90;;;;;;5092192;28;20039;-78
2022/04/23 00:26:15;;;;;;;24.83;20.43;;;8.90;99.90;;;;;;5091691;28;20032;-78
2022/04/23 00:28:41;;;;;;;26.00;20.37;;;8.80;99.90;;;;;;5091848;28;20118;-78
2022/04/23 00:31:07;;;;;;;26.70;20.77;;;8.90;99.90;;;;;;5089437;28;20109;-78
2022/04/23 00:33:37;;;;;;;25.10;20.10;;;8.90;99.90;;;;;;5071157;28;20171;-78
2022/04/23 00:36:09;;;;;;;25.97;20.97;;;8.90;99.90;;;;;;5071531;28;20036;-78
2022/04/23 00:38:40;;;;;;;25.53;20.67;;;8.80;99.90;;;;;;5071809;28;20408;-78
2022/04/23 00:41:07;;;;;;;25.23;20.77;;;8.80;99.90;;;;;;5071451;28;20469;-77
2022/04/23 00:43:34;;;;;;;26.10;21.77;;;8.80;99.90;;;;;;5086628;28;20036;-78
2022/04/23 00:46:01;;;;;;;25.83;21.07;;;8.80;99.90;;;;;;5108228;28;20045;-77
2022/04/23 00:48:26;;;;;;;26.97;20.80;;;8.80;99.90;;;;;;5094312;28;20107;-78
2022/04/23 00:50:55;;;;;;;27.27;21.93;;;8.70;99.90;;;;;;5091822;28;20107;-78
2022/04/23 00:53:22;;;;;;;26.73;21.97;;;8.80;99.90;;;;;;5103839;28;20039;-79
2022/04/23 00:55:48;;;;;;;26.90;21.60;;;8.70;99.90;;;;;;5093599;28;20059;-79
2022/04/23 00:58:17;;;;;;;24.60;20.30;;;8.70;99.90;;;;;;5111947;28;20019;-78
2022/04/23 01:00:44;;;;;;;25.83;21.10;;;8.60;99.90;;;;;;5093752;28;20088;-78
2022/04/23 01:03:13;;;;;;;26.63;21.07;;;8.50;99.90;;;;;;5111822;28;20054;-78
2022/04/23 01:05:46;;;;;;;26.90;21.50;;;8.60;99.90;;;;;;5093247;28;20027;-77
2022/04/23 01:08:18;;;;;;;28.60;22.10;;;8.70;99.90;;;;;;5111995;28;20529;-77
2022/04/23 01:10:45;;;;;;;29.53;22.43;;;8.70;99.90;;;;;;5111861;28;20387;-77
2022/04/23 01:13:14;;;;;;;28.30;22.00;;;8.70;99.90;;;;;;5111676;28;20126;-78
2022/04/23 01:15:43;;;;;;;27.57;21.97;;;8.60;99.90;;;;;;5112883;28;20022;-78
2022/04/23 01:18:08;;;;;;;26.87;21.33;;;8.50;99.90;;;;;;5091125;28;20578;-78
2022/04/23 01:20:36;;;;;;;27.43;21.97;;;8.50;99.90;;;;;;5076953;28;20127;-79
2022/04/23 01:23:01;;;;;;;27.70;21.40;;;8.50;99.90;;;;;;5095262;28;20024;-79
2022/04/23 01:25:28;;;;;;;29.63;23.13;;;8.40;99.90;;;;;;5095236;28;20020;-78
2022/04/23 01:27:54;;;;;;;27.90;22.40;;;8.30;99.90;;;;;;5095302;28;20032;-78
2022/04/23 01:30:20;;;;;;;29.70;22.50;;;8.20;99.90;;;;;;5095039;28;20068;-78
2022/04/23 01:32:45;;;;;;;29.07;21.83;;;8.30;99.90;;;;;;5095158;28;20421;-78
2022/04/23 01:35:11;;;;;;;27.90;21.70;;;8.30;99.90;;;;;;5094713;28;20095;-79
2022/04/23 01:37:36;;;;;;;26.50;19.90;;;8.30;99.90;;;;;;5096680;28;20028;-78
2022/04/23 01:40:02;;;;;;;27.83;22.20;;;8.40;99.90;;;;;;5076628;28;20310;-78
2022/04/23 01:42:28;;;;;;;31.07;23.53;;;8.40;99.90;;;;;;5095132;28;20028;-78
2022/04/23 01:44:54;;;;;;;30.57;22.83;;;8.40;99.90;;;;;;5094861;28;20024;-78
2022/04/23 01:47:20;;;;;;;28.50;22.33;;;8.30;99.90;;;;;;5094606;28;20035;-78
2022/04/23 01:49:45;;;;;;;29.23;23.70;;;8.30;99.90;;;;;;5076630;28;20073;-78
2022/04/23 01:52:12;;;;;;;28.13;22.10;;;8.30;99.90;;;;;;5094824;28;20042;-77
2022/04/23 01:54:37;;;;;;;27.43;20.30;;;8.30;99.90;;;;;;5094658;28;20106;-77
2022/04/23 01:57:04;;;;;;;27.53;21.37;;;8.30;99.90;;;;;;5094455;28;20099;-78
2022/04/23 01:59:30;;;;;;;26.20;21.13;;;8.30;99.90;;;;;;5094486;28;20468;-77
2022/04/23 02:01:57;;;;;;;29.53;22.83;;;8.20;99.90;;;;;;5108340;28;20034;-79
2022/04/23 02:04:23;;;;;;;27.23;20.03;;;8.10;99.90;;;;;;5096359;28;20142;-79
2022/04/23 02:06:48;;;;;;;23.97;19.53;;;8.20;99.90;;;;;;5114489;28;20106;-79
2022/04/23 02:09:14;;;;;;;26.40;21.70;;;8.20;99.90;;;;;;5101569;28;20028;-79
2022/04/23 02:11:40;;;;;;;24.43;20.43;;;8.20;99.90;;;;;;5094141;28;20111;-79
2022/04/23 02:14:06;;;;;;;27.50;21.03;;;8.20;99.90;;;;;;5075805;28;20039;-79
2022/04/23 02:16:32;;;;;;;28.13;22.20;;;8.10;99.90;;;;;;5094006;28;20012;-79
2022/04/23 02:18:59;;;;;;;25.30;21.27;;;8.10;99.90;;;;;;5093597;28;20072;-79
2022/04/23 02:21:25;;;;;;;26.03;22.13;;;8.10;99.90;;;;;;5093255;28;20073;-78
2022/04/23 02:23:53;;;;;;;26.87;22.63;;;8.10;99.90;;;;;;5104726;28;20039;-79
2022/04/23 02:26:20;;;;;;;26.53;22.17;;;8.10;99.90;;;;;;5114016;28;20122;-78
2022/04/23 02:28:49;;;;;;;25.57;21.67;;;8.10;99.90;;;;;;5113530;28;20547;-79
2022/04/23 02:31:14;;;;;;;26.30;21.80;;;8.20;99.90;;;;;;5114047;28;20024;-79
2022/04/23 02:33:40;;;;;;;27.90;22.00;;;8.40;99.90;;;;;;5093928;28;20050;-78
2022/04/23 02:36:06;;;;;;;26.23;21.30;;;8.30;99.90;;;;;;5113659;28;20035;-77
2022/04/23 02:38:33;;;;;;;27.40;22.17;;;8.20;99.90;;;;;;5095942;28;20399;-77
2022/04/23 02:40:58;;;;;;;27.00;22.23;;;8.20;99.90;;;;;;5113117;28;20020;-78
2022/04/23 02:43:24;;;;;;;29.00;22.63;;;8.20;99.90;;;;;;5113481;28;20030;-78
2022/04/23 02:45:49;;;;;;;25.93;21.80;;;8.10;99.90;;;;;;5113661;28;20030;-79
2022/04/23 02:48:15;;;;;;;24.23;20.63;;;8.20;99.90;;;;;;5102841;28;20038;-78
2022/04/23 02:50:41;;;;;;;26.80;22.13;;;8.20;99.90;;;;;;5105659;28;20024;-79
2022/04/23 02:53:08;;;;;;;27.50;22.20;;;8.20;99.90;;;;;;5093593;28;20052;-78
2022/04/23 02:55:35;;;;;;;26.23;21.60;;;8.20;99.90;;;;;;5093398;28;20381;-78
2022/04/23 02:58:10;;;;;;;26.63;22.93;;;8.30;99.90;;;;;;5093471;28;20070;-79
2022/04/23 03:00:38;;;;;;;;;;;8.20;99.90;;;;;;5093682;28;20020;-78
2022/04/23 03:03:05;;;;;;;27.53;22.53;;;8.20;99.90;;;;;;5076562;28;20304;-78
2022/04/23 03:05:31;;;;;;;27.93;22.73;;;8.00;99.90;;;;;;5093196;28;20349;-77
2022/04/23 03:08:00;;;;;;;26.23;20.93;;;8.00;99.90;;;;;;5092699;28;20415;-78
2022/04/23 03:10:29;;;;;;;25.30;20.03;;;8.10;99.90;;;;;;5093029;28;20074;-78
2022/04/23 03:12:57;;;;;;;26.23;21.23;;;8.10;99.90;;;;;;5093091;28;20067;-79
2022/04/23 03:15:25;;;;;;;24.43;20.40;;;7.90;99.90;;;;;;5074844;28;20085;-78
2022/04/23 03:18:05;;;;;;;28.93;22.13;;;7.80;99.90;;;;;;5093161;28;20473;-78
2022/04/23 03:20:32;;;;;;;25.60;21.47;;;7.80;99.90;;;;;;5093048;28;20085;-78
2022/04/23 03:22:58;;;;;;;26.47;21.90;;;7.80;99.90;;;;;;5098330;28;20366;-78
2022/04/23 03:25:23;;;;;;;25.63;21.50;;;7.80;99.90;;;;;;5113294;28;20038;-78
2022/04/23 03:27:49;;;;;;;26.93;20.83;;;7.80;99.90;;;;;;5094767;28;20373;-78
2022/04/23 03:30:14;;;;;;;26.40;20.73;;;8.00;99.90;;;;;;5094474;28;20073;-78
2022/04/23 03:32:41;;;;;;;26.53;20.97;;;7.90;99.90;;;;;;5112959;28;20047;-78
2022/04/23 03:35:08;;;;;;;25.87;20.80;;;7.80;99.90;;;;;;5112979;28;20484;-79
2022/04/23 03:37:37;;;;;;;26.30;21.63;;;7.80;99.90;;;;;;5094529;28;20472;-79
2022/04/23 03:40:08;;;;;;;25.13;21.27;;;7.70;99.90;;;;;;5111785;28;20104;-79
2022/04/23 03:42:35;;;;;;;27.53;21.87;;;7.70;99.90;;;;;;5092340;28;20020;-79
2022/04/23 03:45:06;;;;;;;23.40;19.37;;;7.80;99.90;;;;;;5092271;28;20023;-79
2022/04/23 03:47:32;;;;;;;27.27;21.93;;;7.90;99.90;;;;;;5091952;28;20032;-79
2022/04/23 03:50:07;;;;;;;23.90;20.10;;;7.90;99.90;;;;;;5092734;28;20647;-79
2022/04/23 03:52:33;;;;;;;24.45;20.02;;;7.90;99.90;;;;;;5092282;28;20031;-79
2022/04/23 03:54:59;;;;;;;25.40;20.77;;;7.90;99.90;;;;;;5092251;28;20055;-79
2022/04/23 03:57:25;;;;;;;23.63;19.53;;;7.90;99.90;;;;;;5092367;28;20372;-78
2022/04/23 03:59:50;;;;;;;28.40;21.70;;;7.90;99.90;;;;;;5092140;28;20028;-79
2022/04/23 04:02:16;;;;;;;24.87;19.73;;;7.80;99.90;;;;;;5092242;28;20115;-79
2022/04/23 04:04:42;;;;;;;24.80;20.17;;;7.80;99.90;;;;;;5111649;28;20027;-78
2022/04/23 04:07:08;;;;;;;25.63;20.13;;;7.80;99.90;;;;;;5094276;28;20421;-79
2022/04/23 04:09:34;;;;;;;26.07;19.27;;;7.90;99.90;;;;;;5109085;28;20022;-79
2022/04/23 04:12:03;;;;;;;24.43;19.63;;;7.90;99.90;;;;;;5112486;28;20371;-78
2022/04/23 04:14:35;;;;;;;27.67;21.77;;;7.90;99.90;;;;;;5112015;28;20034;-78
2022/04/23 04:17:02;;;;;;;26.40;20.17;;;7.80;99.90;;;;;;5112206;28;20045;-78
2022/04/23 04:19:28;;;;;;;27.07;19.97;;;7.70;99.90;;;;;;5093465;28;20019;-78
2022/04/23 04:21:54;;;;;;;25.20;20.50;;;7.70;99.90;;;;;;5111344;28;20028;-79
2022/04/23 04:24:20;;;;;;;23.43;20.07;;;7.70;99.90;;;;;;5093112;28;20384;-78
2022/04/23 04:26:49;;;;;;;25.40;20.37;;;7.80;99.90;;;;;;5073122;28;20481;-78
2022/04/23 04:29:15;;;;;;;27.17;21.73;;;7.80;99.90;;;;;;5091746;28;20041;-78
2022/04/23 04:31:50;;;;;;;25.30;19.27;;;7.70;99.90;;;;;;5091423;28;20385;-78
2022/04/23 04:34:23;;;;;;;23.25;19.02;;;7.80;99.90;;;;;;5106311;28;20104;-78
2022/04/23 04:36:50;;;;;;;23.13;18.77;;;7.90;99.90;;;;;;5093498;28;20031;-78
2022/04/23 04:39:17;;;;;;;26.27;19.63;;;7.80;99.90;;;;;;5093625;28;20027;-78
2022/04/23 04:41:43;;;;;;;23.53;19.83;;;7.80;99.90;;;;;;5094314;28;20024;-78
2022/04/23 04:44:09;;;;;;;24.47;18.47;;;7.90;99.90;;;;;;5081043;28;20361;-79
2022/04/23 04:46:36;;;;;;;24.33;19.47;;;7.90;99.90;;;;;;5091200;28;20043;-78
2022/04/23 04:49:04;;;;;;;26.10;19.63;;;8.10;99.90;;;;;;5091681;28;20046;-78
2022/04/23 04:51:30;;;;;;;25.80;20.53;;;8.00;99.90;;;;;;5091603;28;20035;-79
2022/04/23 04:53:56;;;;;;;27.63;20.67;;;8.00;99.90;;;;;;5091702;28;20097;-78
2022/04/23 04:56:23;;;;;;;23.37;19.30;;;7.90;99.90;;;;;;5091690;28;20047;-79
2022/04/23 04:58:48;;;;;;;25.87;20.00;;;7.90;99.90;;;;;;5073599;28;20048;-79
2022/04/23 05:01:15;;;;;;;23.77;19.27;;;7.90;99.90;;;;;;5075064;28;20116;-79
2022/04/23 05:03:41;;;;;;;28.90;20.60;;;7.90;99.90;;;;;;5103829;28;20055;-79
2022/04/23 05:06:07;;;;;;;26.90;21.60;;;7.90;99.90;;;;;;5095675;28;20032;-79
2022/04/23 05:08:34;;;;;;;26.27;20.10;;;7.80;99.90;;;;;;5093261;28;20028;-79
2022/04/23 05:11:00;;;;;;;28.93;22.00;;;7.80;99.90;;;;;;5085620;28;20023;-78
2022/04/23 05:13:25;;;;;;;30.40;25.57;;;7.80;99.90;;;;;;5072405;28;20051;-79
2022/04/23 05:15:51;;;;;;;27.67;22.40;;;8.00;99.90;;;;;;5084729;28;20024;-79
2022/04/23 05:18:17;;;;;;;36.37;32.47;;;7.90;99.90;;;;;;5086396;28;20023;-79
2022/04/23 05:20:42;;;;;;;29.93;26.77;;;7.90;99.90;;;;;;5089733;28;20020;-79
2022/04/23 05:23:08;;;;;;;26.43;21.37;;;8.00;99.90;;;;;;5087676;28;20134;-79
2022/04/23 05:25:33;;;;;;;25.03;20.63;;;8.10;99.90;;;;;;5086894;28;20052;-79
2022/04/23 05:28:01;;;;;;;28.47;21.77;;;8.10;99.90;;;;;;5090056;28;20062;-79
2022/04/23 05:30:27;;;;;;;28.27;22.77;;;8.00;99.90;;;;;;5087848;28;20051;-80
2022/04/23 05:32:52;;;;;;;29.00;22.40;;;8.10;99.90;;;;;;5090231;28;20024;-79
2022/04/23 05:35:18;;;;;;;27.47;22.23;;;8.00;99.90;;;;;;5068313;28;20468;-80
2022/04/23 05:37:44;;;;;;;27.00;19.83;;;8.00;99.90;;;;;;5068616;28;20024;-79
2022/04/23 05:40:10;;;;;;;24.00;19.33;;;8.10;99.90;;;;;;5090017;28;20024;-79
2022/04/23 05:42:36;;;;;;;25.07;19.53;;;8.00;99.90;;;;;;5091177;28;20027;-84
2022/04/23 05:45:01;;;;;;;27.07;21.77;;;8.00;99.90;;;;;;5087647;28;20411;-84
2022/04/23 05:47:27;;;;;;;33.73;26.83;;;8.10;99.90;;;;;;5091510;28;20020;-84
2022/04/23 05:49:52;;;;;;;30.30;24.43;;;8.20;99.90;;;;;;5083174;28;20070;-85
2022/04/23 05:52:18;;;;;;;30.53;24.77;;;8.20;99.90;;;;;;5071929;28;20028;-84
2022/04/23 05:54:43;;;;;;;29.40;22.93;;;8.10;99.90;;;;;;5073463;28;20028;-84
2022/04/23 05:57:09;;;;;;;26.43;19.87;;;8.10;99.90;;;;;;5092720;28;20028;-85
2022/04/23 05:59:35;;;;;;;27.07;20.13;;;8.10;99.90;;;;;;5092196;28;20025;-85
2022/04/23 06:02:00;;;;;;;27.23;21.20;;;8.20;99.90;;;;;;5089847;28;20484;-84
2022/04/23 06:04:27;;;;;;;26.70;20.53;;;8.20;99.90;;;;;;5096243;28;20028;-84
2022/04/23 06:06:53;;;;;;;27.30;19.50;;;8.00;99.90;;;;;;5096103;28;20016;-84
2022/04/23 06:09:21;;;;;;;23.23;17.73;;;8.00;99.90;;;;;;5092439;28;20028;-84
2022/04/23 06:11:47;;;;;;;21.87;17.33;;;8.00;99.90;;;;;;5093198;28;20024;-85
2022/04/23 06:14:12;;;;;;;24.73;17.80;;;8.10;99.90;;;;;;5090586;28;20040;-79
2022/04/23 06:16:38;;;;;;;22.47;16.10;;;8.10;99.90;;;;;;5088442;28;20536;-79
2022/04/23 06:19:04;;;;;;;21.17;15.57;;;8.10;99.90;;;;;;5099539;28;20024;-78
2022/04/23 06:21:30;;;;;;;19.77;15.50;;;8.10;99.90;;;;;;5090628;28;20020;-77
2022/04/23 06:23:55;;;;;;;21.30;16.00;;;8.00;99.90;;;;;;5093684;28;20035;-77
2022/04/23 06:26:21;;;;;;;18.57;14.70;;;8.20;99.90;;;;;;5092161;28;20055;-77
2022/04/23 06:28:47;;;;;;;20.30;16.00;;;8.30;99.90;;;;;;5094489;28;20051;-75
2022/04/23 06:31:13;;;;;;;24.20;17.47;;;8.30;99.90;;;;;;5077450;28;20027;-75
2022/04/23 06:33:39;;;;;;;22.10;16.50;;;8.30;99.90;;;;;;5095696;28;20353;-75
2022/04/23 06:36:05;;;;;;;21.10;16.33;;;8.40;99.90;;;;;;5095447;28;20093;-75
2022/04/23 06:38:30;;;;;;;21.37;15.80;;;8.40;99.90;;;;;;5094250;28;20114;-75
2022/04/23 06:40:56;;;;;;;21.77;16.50;;;8.40;99.90;;;;;;5095748;28;20025;-76
2022/04/23 06:43:21;;;;;;;23.10;15.10;;;8.50;99.90;;;;;;5077399;28;20473;-75
2022/04/23 06:45:47;;;;;;;22.27;16.57;;;8.50;99.90;;;;;;5077319;28;20526;-75
2022/04/23 06:48:12;;;;;;;21.73;15.17;;;8.50;99.90;;;;;;5095571;28;20083;-78
2022/04/23 06:50:38;;;;;;;19.13;14.60;;;8.30;99.90;;;;;;5095662;28;20032;-74
2022/04/23 06:53:04;;;;;;;21.67;14.63;;;8.30;99.90;;;;;;5095862;28;20105;-74
2022/04/23 06:55:30;;;;;;;23.73;15.50;;;8.50;99.90;;;;;;5095988;28;20099;-74
2022/04/23 06:57:56;;;;;;;22.10;15.43;;;8.60;99.90;;;;;;5095354;28;20149;-74
2022/04/23 07:00:22;;;;;;;21.47;13.97;;;8.50;99.90;;;;;;5095297;28;20031;-74
2022/04/23 07:02:51;;;;;;;20.27;13.57;;;8.50;99.90;;;;;;5095186;28;20028;-74
2022/04/23 07:05:18;;;;;;;21.70;14.50;;;8.70;99.90;;;;;;5095071;28;20465;-74
2022/04/23 07:07:59;;;;;;;19.00;14.03;;;8.70;99.90;;;;;;5094922;28;20032;-74
2022/04/23 07:10:29;;;;;;;23.43;15.57;;;8.70;99.90;;;;;;5076820;28;20024;-74
2022/04/23 07:12:55;;;;;;;21.30;14.97;;;8.70;99.90;;;;;;5094961;28;20341;-74
2022/04/23 07:15:22;;;;;;;23.80;17.63;;;8.80;99.90;;;;;;5076672;28;20024;-75
2022/04/23 07:17:49;;;;;;;27.97;19.67;;;8.70;99.90;;;;;;5095061;28;20067;-75
2022/04/23 07:20:18;;;;;;;21.73;15.90;;;8.80;99.90;;;;;;5095032;28;20016;-75
2022/04/23 07:25:33;;;;;;;20.50;16.00;;;8.90;99.90;;;;;;5095270;28;20043;-74
2022/04/23 07:27:58;;;;;;;21.70;15.80;;;8.90;99.90;;;;;;5094893;28;20031;-75
2022/04/23 07:30:25;;;;;;;27.57;18.33;;;9.00;99.90;;;;;;5094855;28;20044;-75
2022/04/23 07:32:55;;;;;;;67.83;34.10;;;8.90;99.90;;;;;;5094648;28;20018;-75
2022/04/23 07:38:13;;;;;;;29.55;20.52;;;8.90;99.90;;;;;;5094586;28;20033;-75
2022/04/23 07:40:42;;;;;;;26.50;18.63;;;9.10;99.90;;;;;;5094458;28;20017;-74
2022/04/23 07:43:12;;;;;;;42.47;26.10;;;9.20;99.90;;;;;;5094451;28;20415;-73
2022/04/23 07:45:43;;;;;;;24.60;18.07;;;9.30;99.90;;;;;;5094243;28;20031;-73
2022/04/23 07:48:10;;;;;;;26.63;17.30;;;9.30;99.90;;;;;;5079435;28;20369;-73
2022/04/23 07:50:37;;;;;;;21.47;15.50;;;9.30;99.90;;;;;;5073736;28;20048;-74
2022/04/23 07:53:04;;;;;;;25.93;16.93;;;9.30;99.90;;;;;;5073812;28;20025;-74
2022/04/23 07:55:32;;;;;;;28.17;18.03;;;9.30;99.90;;;;;;5073585;28;20058;-74
2022/04/23 07:58:03;;;;;;;33.40;19.93;;;9.40;99.90;;;;;;5073693;28;20017;-74
2022/04/23 08:00:34;;;;;;;36.20;20.73;;;9.50;99.90;;;;;;5074249;28;20020;-74
2022/04/23 08:03:05;;;;;;;28.93;18.50;;;9.60;99.90;;;;;;5093409;28;20020;-74
2022/04/23 08:05:32;;;;;;;34.50;19.93;;;9.40;99.90;;;;;;5093999;28;20107;-74
2022/04/23 08:07:58;;;;;;;46.13;24.00;;;9.40;99.90;;;;;;5094219;28;20024;-74
2022/04/23 08:10:24;;;;;;;33.73;19.70;;;9.40;99.90;;;;;;5093834;28;20476;-74
2022/04/23 08:12:49;;;;;;;36.77;21.83;;;9.60;99.90;;;;;;5093858;28;20110;-74
2022/04/23 08:15:15;;;;;;;26.07;18.80;;;9.70;99.90;;;;;;5093704;28;20072;-75
2022/04/23 08:17:41;;;;;;;53.43;30.97;;;9.70;99.90;;;;;;5094142;28;20346;-74
2022/04/23 08:20:08;;;;;;;23.93;17.63;;;9.70;99.90;;;;;;5075499;28;20063;-74
2022/04/23 08:22:34;;;;;;;22.97;17.00;;;9.80;99.90;;;;;;5093732;28;20031;-75
2022/04/23 08:24:59;;;;;;;26.67;17.63;;;9.90;99.90;;;;;;5093200;28;20020;-74
2022/04/23 08:27:25;;;;;;;24.77;17.53;;;9.90;99.90;;;;;;5093916;28;20027;-74
2022/04/23 08:32:35;;;;;;;30.40;21.42;;;10.00;99.90;;;;;;5090207;28;20507;-74
2022/04/23 08:35:02;;;;;;;29.03;19.53;;;10.00;99.90;;;;;;5093492;28;20028;-75
2022/04/23 08:37:27;;;;;;;25.53;17.97;;;10.10;99.90;;;;;;5093576;28;20031;-74
2022/04/23 08:39:53;;;;;;;22.93;17.10;;;10.30;99.90;;;;;;5093329;28;20032;-74
2022/04/23 08:42:19;;;;;;;22.67;17.10;;;10.20;99.90;;;;;;5093291;28;20024;-74
2022/04/23 08:44:45;;;;;;;26.70;17.17;;;10.20;99.90;;;;;;5093529;28;20024;-74
2022/04/23 08:47:11;;;;;;;23.43;17.30;;;10.20;99.90;;;;;;5093240;28;20020;-75
2022/04/23 08:49:41;;;;;;;25.20;15.97;;;10.40;99.90;;;;;;5081640;28;20028;-75
2022/04/23 08:52:16;;;;;;;21.00;15.50;;;10.60;99.90;;;;;;5093043;28;20081;-75
2022/04/23 08:54:43;;;;;;;20.83;15.18;;;10.70;99.90;;;;;;5091828;28;20028;-75
2022/04/23 08:57:10;;;;;;;18.30;15.10;;;10.80;99.90;;;;;;5093090;28;20493;-75
2022/04/23 08:59:38;;;;;;;20.83;15.10;;;10.90;99.90;;;;;;5092543;28;20074;-75
2022/04/23 09:02:11;;;;;;;17.97;14.83;;;10.80;99.90;;;;;;5092767;28;20061;-75
2022/04/23 09:04:37;;;;;;;19.67;14.97;;;11.00;99.90;;;;;;5092995;28;20413;-75
2022/04/23 09:07:03;;;;;;;19.03;15.23;;;11.10;99.90;;;;;;5074916;28;20508;-75
2022/04/23 09:09:30;;;;;;;27.57;20.33;;;11.20;99.90;;;;;;5092843;28;20028;-75
2022/04/23 09:11:58;;;;;;;62.33;33.67;;;11.20;99.90;;;;;;5092959;28;20028;-74
2022/04/23 09:14:33;;;;;;;41.03;23.03;;;11.40;99.90;;;;;;5092957;28;20028;-75
2022/04/23 09:25:28;;;;;;;16.35;13.98;;;11.60;99.90;;;;;;5093307;28;20032;-74
2022/04/23 09:27:54;;;;;;;16.17;13.48;;;11.90;99.90;;;;;;5092840;28;20457;-75
2022/04/23 09:30:19;;;;;;;16.17;13.77;;;12.20;99.90;;;;;;5092776;28;20044;-75
2022/04/23 09:32:57;;;;;;;16.65;12.00;;;12.30;99.90;;;;;;5092783;28;20032;-75
2022/04/23 09:35:22;;;;;;;18.65;15.07;;;12.60;99.90;;;;;;5074953;28;20483;-75
2022/04/23 09:40:33;;;;;;;15.45;12.43;;;12.60;99.90;;;;;;5096484;28;20120;-75
2022/04/23 09:42:59;;;;;;;15.77;12.45;;;12.60;99.90;;;;;;5096262;28;20106;-75
2022/04/23 09:45:26;;;;;;;16.25;12.45;;;12.60;99.90;;;;;;5078234;28;20032;-75
2022/04/23 09:47:53;;;;;;;18.27;12.45;;;12.60;99.90;;;;;;5096664;28;20048;-75
2022/04/23 09:50:19;;;;;;;20.40;14.02;;;12.60;99.90;;;;;;5093102;28;20504;-76
2022/04/23 09:52:45;;;;;;;14.80;13.20;;;12.60;99.90;;;;;;5093653;28;20020;-76
2022/04/23 09:55:12;;;;;;;17.30;12.27;;;12.70;99.90;;;;;;5096307;28;20099;-76
2022/04/23 09:57:38;;;;;;;13.60;10.93;;;12.60;99.90;;;;;;5096383;28;20103;-75
2022/04/23 10:00:05;;;;;;;22.85;14.13;;;12.80;99.90;;;;;;5096438;28;20047;-75
2022/04/23 10:02:34;;;;;;;20.50;14.60;;;12.80;99.90;;;;;;5096094;28;20020;-75
2022/04/23 10:05:02;;;;;;;18.90;14.95;;;12.70;99.90;;;;;;5095606;28;20024;-75
2022/04/23 10:07:29;;;;;;;14.48;12.13;;;12.90;99.90;;;;;;5095644;28;20346;-75
2022/04/23 10:09:56;;;;;;;14.45;10.98;;;12.90;99.90;;;;;;5095632;28;20020;-75
2022/04/23 10:12:24;;;;;;;14.63;11.18;;;12.90;99.90;;;;;;5099940;28;20024;-75
2022/04/23 10:14:56;;;;;;;11.85;10.50;;;13.10;99.90;;;;;;5097383;28;20367;-75
2022/04/23 10:17:24;;;;;;;14.73;9.90;;;13.20;99.90;;;;;;5097280;28;20059;-76
2022/04/23 10:19:50;;;;;;;11.63;10.20;;;13.40;99.90;;;;;;5115311;28;20027;-75
2022/04/23 10:22:22;;;;;;;11.70;10.32;;;13.70;99.90;;;;;;5115670;28;20020;-75
2022/04/23 10:25:14;;;;;;;15.45;11.45;;;13.90;99.90;;;;;;5102964;28;20425;-75
2022/04/23 10:27:40;;;;;;;13.77;12.00;;;14.10;99.90;;;;;;5074999;28;20103;-76
2022/04/23 10:30:07;;;;;;;19.40;14.88;;;13.90;99.90;;;;;;5056972;28;20049;-76
2022/04/23 10:32:39;;;;;;;18.65;14.98;;;13.90;99.90;;;;;;5057223;28;20028;-76
2022/04/23 10:35:25;;;;;;;22.50;16.80;;;14.00;99.90;;;;;;5075335;28;20044;-76
2022/04/23 10:37:51;;;;;;;25.60;17.52;;;14.00;99.90;;;;;;5053245;28;20461;-76
2022/04/23 10:40:21;;;;;;;23.00;16.85;;;14.00;99.90;;;;;;5057393;28;20115;-76
2022/04/23 10:43:04;;;;;;;20.85;16.52;;;13.80;99.90;;;;;;5075035;28;20428;-76
2022/04/23 10:45:35;;;;;;;23.73;17.13;;;13.90;99.90;;;;;;5075001;28;20040;-76
2022/04/23 10:48:43;;;;;;;25.15;18.00;;;13.90;99.90;;;;;;5087692;28;20032;-76
2022/04/23 10:51:10;;;;;;;19.30;15.23;;;13.90;99.90;;;;;;5052534;28;20503;-76
2022/04/23 10:53:41;;;;;;;22.77;16.63;;;13.90;99.90;;;;;;5089189;28;20032;-76
2022/04/23 10:56:07;;;;;;;25.45;20.55;;;13.90;99.90;;;;;;5095107;28;20040;-76
2022/04/23 10:58:33;;;;;;;22.65;17.65;;;13.70;99.90;;;;;;5096478;28;20502;-80
2022/04/23 11:01:20;;;;;;;28.73;19.23;;;13.70;99.90;;;;;;5098761;28;20514;-80
2022/04/23 11:04:07;;;;;;;25.13;17.77;;;13.80;99.90;;;;;;5090653;28;20494;-79
2022/04/23 11:12:54;;;;;;;26.58;17.70;;;14.50;99.90;;;;;;5092092;28;20084;-78
2022/04/23 11:15:22;;;;;;;26.67;18.42;;;14.40;99.90;;;;;;5093834;28;20578;-78
2022/04/23 11:17:58;;;;;;;25.27;18.23;;;14.60;99.90;;;;;;5066844;28;20035;-78
2022/04/23 11:20:28;;;;;;;24.77;19.30;;;14.60;99.90;;;;;;5090785;28;20024;-78
2022/04/23 11:22:55;;;;;;;21.25;17.10;;;14.50;99.90;;;;;;5068600;28;20058;-77
2022/04/23 11:25:21;;;;;;;24.65;17.98;;;14.40;99.90;;;;;;5087618;28;20058;-78
2022/04/23 11:27:48;;;;;;;25.23;18.45;;;14.40;99.90;;;;;;5085780;28;20032;-77
2022/04/23 11:30:14;;;;;;;26.15;18.25;;;14.40;99.90;;;;;;5085166;28;20114;-77
2022/04/23 11:32:40;;;;;;;24.02;18.63;;;14.20;99.90;;;;;;5078468;28;20107;-77
2022/04/23 11:35:07;;;;;;;25.75;19.17;;;14.00;99.90;;;;;;5093486;28;20379;-78
2022/04/23 11:37:39;;;;;;;25.38;17.30;;;14.00;99.90;;;;;;5102465;28;20039;-78
2022/04/23 11:40:10;;;;;;;25.10;17.65;;;13.90;99.90;;;;;;5095395;28;20028;-82
2022/04/23 11:42:46;;;;;;;26.95;17.92;;;13.90;99.90;;;;;;5107577;28;20044;-81
2022/04/23 11:45:14;;;;;;;25.63;19.45;;;13.90;99.90;;;;;;5091963;28;20029;-82
2022/04/23 11:47:40;;;;;;;25.02;18.75;;;13.80;99.90;;;;;;5075832;28;20058;-84
2022/04/23 11:50:13;;;;;;;26.98;19.35;;;13.80;99.90;;;;;;5095957;28;20024;-82
2022/04/23 11:52:40;;;;;;;40.40;24.83;;;14.00;99.90;;;;;;5093847;28;20103;-82
2022/04/23 11:55:08;;;;;;;91.47;45.17;;;14.10;99.90;;;;;;5073839;28;20025;-82
2022/04/23 11:57:34;;;;;;;36.15;21.60;;;14.00;99.90;;;;;;5073124;28;20043;-81
2022/04/23 12:00:01;;;;;;;139.02;55.00;;;14.10;99.90;;;;;;5097470;28;20372;-82
2022/04/23 12:02:28;;;;;;;160.38;60.67;;;14.10;99.90;;;;;;5113250;28;20058;-82
2022/04/23 12:04:59;;;;;;;288.80;94.93;;;14.10;99.90;;;;;;5113823;28;20697;-82
2022/04/23 12:07:27;;;;;;;44.83;31.05;;;14.30;99.90;;;;;;5086750;28;20469;-81
2022/04/23 12:09:52;;;;;;;27.27;19.83;;;14.20;99.90;;;;;;5100678;28;20031;-82
2022/04/23 12:12:20;;;;;;;26.10;18.92;;;14.50;99.90;;;;;;5109941;28;20020;-83
2022/04/23 12:14:47;;;;;;;26.10;18.30;;;14.60;99.90;;;;;;5098202;28;20566;-83
2022/04/23 12:17:26;;;;;;;28.45;19.10;;;14.30;99.90;;;;;;5099759;28;20020;-83
2022/04/23 12:20:08;;;;;;;27.42;17.98;;;14.20;99.90;;;;;;5103372;28;20020;-82
2022/04/23 12:22:33;;;;;;;26.42;18.08;;;14.10;99.90;;;;;;5115788;28;20036;-85
2022/04/23 12:25:18;;;;;;;26.67;18.98;;;14.20;99.90;;;;;;5088528;28;20485;-78
2022/04/23 12:27:54;;;;;;;29.25;18.75;;;14.20;99.90;;;;;;5085681;28;20024;-81
2022/04/23 12:42:03;;;;;;;26.45;18.92;;;14.00;99.90;;;;;;5090876;28;20093;-78
2022/04/23 12:44:41;;;;;;;23.85;17.05;;;14.10;99.90;;;;;;5072250;28;20050;-77
2022/04/23 12:47:08;;;;;;;25.67;18.88;;;14.20;99.90;;;;;;5067566;28;20565;-78
2022/04/23 12:49:55;;;;;;;26.92;17.70;;;14.10;99.90;;;;;;5087281;28;20032;-79
2022/04/23 12:52:32;;;;;;;24.40;17.45;;;14.20;99.90;;;;;;5091345;28;20051;-80
2022/04/23 12:55:17;;;;;;;22.90;18.35;;;14.40;99.90;;;;;;5093593;28;20024;-79
2022/04/23 12:57:45;;;;;;;24.42;18.92;;;14.50;99.90;;;;;;5075412;28;20020;-80
2022/04/23 13:00:16;;;;;;;24.70;18.42;;;14.50;99.90;;;;;;5093467;28;20066;-79
2022/04/23 13:02:43;;;;;;;26.30;19.70;;;14.60;99.90;;;;;;5075131;28;20020;-78
2022/04/23 13:05:10;;;;;;;26.10;19.05;;;14.40;99.90;;;;;;5093606;28;20111;-79
2022/04/23 13:10:20;;;;;;;25.83;19.70;;;14.30;99.90;;;;;;5093850;28;20043;-80
2022/04/23 13:12:46;;;;;;;27.83;19.80;;;14.30;99.90;;;;;;5097288;28;20368;-79
2022/04/23 13:15:12;;;;;;;26.60;19.23;;;14.40;99.90;;;;;;5076282;28;20029;-80
2022/04/23 13:17:38;;;;;;;25.15;18.98;;;14.50;99.90;;;;;;5077811;28;20021;-79